sensor_id;sensor_type;location;lat;lon;timestamp;P1;durP1;ratioP1;P2;durP2;ratioP2
18780;SDS011;9519;51.890;8.970;2022-08-04T00:02:09;5.63;;;2.90;;
18780;SDS011;9519;51.890;8.970;2022-08-04T00:07:17;8.45;;;2.55;;
18780;SDS011;9519;51.890;8.970;2022-08-04T00:12:31;6.72;;;2.80;;
18780;SDS011;9519;51.890;8.970;2022-08-04T00:17:39;5.75;;;2.58;;
18780;SDS011;9519;51.890;8.970;2022-08-04T00:22:46;8.95;;;2.83;;
18780;SDS011;9519;51.890;8.970;2022-08-04T00:27:52;9.07;;;2.70;;
18780;SDS011;9519;51.890;8.970;2022-08-04T00:32:58;6.35;;;2.80;;
18780;SDS011;9519;51.890;8.970;2022-08-04T00:38:02;7.38;;;2.67;;
18780;SDS011;9519;51.890;8.970;2022-08-04T00:43:07;7.72;;;2.55;;
18780;SDS011;9519;51.890;8.970;2022-08-04T00:48:24;6.05;;;2.50;;
18780;SDS011;9519;51.890;8.970;2022-08-04T00:53:50;9.20;;;3.42;;
18780;SDS011;9519;51.890;8.970;2022-08-04T00:59:09;5.07;;;2.67;;
18780;SDS011;9519;51.890;8.970;2022-08-04T01:04:37;8.88;;;2.83;;
18780;SDS011;9519;51.890;8.970;2022-08-04T01:09:51;7.18;;;2.65;;
18780;SDS011;9519;51.890;8.970;2022-08-04T01:15:03;10.13;;;3.17;;
18780;SDS011;9519;51.890;8.970;2022-08-04T01:20:09;8.32;;;2.90;;
18780;SDS011;9519;51.890;8.970;2022-08-04T01:31:47;8.63;;;2.97;;
18780;SDS011;9519;51.890;8.970;2022-08-04T01:37:03;9.63;;;3.08;;
18780;SDS011;9519;51.890;8.970;2022-08-04T01:42:19;9.20;;;2.40;;
18780;SDS011;9519;51.890;8.970;2022-08-04T01:47:29;8.10;;;2.60;;
18780;SDS011;9519;51.890;8.970;2022-08-04T01:52:32;5.20;;;2.90;;
18780;SDS011;9519;51.890;8.970;2022-08-04T01:57:40;10.23;;;2.30;;
18780;SDS011;9519;51.890;8.970;2022-08-04T02:02:45;5.97;;;2.42;;
18780;SDS011;9519;51.890;8.970;2022-08-04T02:07:50;8.38;;;2.80;;
18780;SDS011;9519;51.890;8.970;2022-08-04T02:13:13;7.95;;;2.97;;
18780;SDS011;9519;51.890;8.970;2022-08-04T02:18:27;8.73;;;2.80;;
18780;SDS011;9519;51.890;8.970;2022-08-04T02:23:35;9.07;;;3.05;;
18780;SDS011;9519;51.890;8.970;2022-08-04T02:28:43;5.78;;;2.75;;
18780;SDS011;9519;51.890;8.970;2022-08-04T02:33:55;8.80;;;2.25;;
18780;SDS011;9519;51.890;8.970;2022-08-04T02:39:07;5.93;;;2.30;;
18780;SDS011;9519;51.890;8.970;2022-08-04T02:44:11;6.38;;;2.70;;
18780;SDS011;9519;51.890;8.970;2022-08-04T02:49:19;8.20;;;2.90;;
18780;SDS011;9519;51.890;8.970;2022-08-04T02:54:27;5.85;;;2.80;;
18780;SDS011;9519;51.890;8.970;2022-08-04T02:59:37;7.65;;;2.55;;
18780;SDS011;9519;51.890;8.970;2022-08-04T03:05:05;7.30;;;3.20;;
18780;SDS011;9519;51.890;8.970;2022-08-04T03:10:21;7.47;;;2.92;;
18780;SDS011;9519;51.890;8.970;2022-08-04T03:15:55;8.63;;;2.78;;
18780;SDS011;9519;51.890;8.970;2022-08-04T03:21:29;4.95;;;2.50;;
18780;SDS011;9519;51.890;8.970;2022-08-04T03:27:08;7.40;;;3.13;;
18780;SDS011;9519;51.890;8.970;2022-08-04T03:32:35;8.32;;;3.40;;
18780;SDS011;9519;51.890;8.970;2022-08-04T03:38:28;11.40;;;3.25;;
18780;SDS011;9519;51.890;8.970;2022-08-04T04:01:39;9.75;;;3.60;;
18780;SDS011;9519;51.890;8.970;2022-08-04T04:07:14;6.68;;;3.42;;
18780;SDS011;9519;51.890;8.970;2022-08-04T04:18:49;6.13;;;3.53;;
18780;SDS011;9519;51.890;8.970;2022-08-04T04:24:10;10.38;;;4.15;;
18780;SDS011;9519;51.890;8.970;2022-08-04T04:30:16;9.07;;;3.92;;
18780;SDS011;9519;51.890;8.970;2022-08-04T04:35:31;10.98;;;4.35;;
18780;SDS011;9519;51.890;8.970;2022-08-04T04:40:45;10.85;;;4.85;;
18780;SDS011;9519;51.890;8.970;2022-08-04T04:46:09;15.82;;;5.47;;
18780;SDS011;9519;51.890;8.970;2022-08-04T04:51:21;23.92;;;12.15;;
18780;SDS011;9519;51.890;8.970;2022-08-04T04:56:40;15.18;;;7.43;;
18780;SDS011;9519;51.890;8.970;2022-08-04T05:02:05;15.32;;;7.07;;
18780;SDS011;9519;51.890;8.970;2022-08-04T05:08:04;14.38;;;6.53;;
18780;SDS011;9519;51.890;8.970;2022-08-04T05:13:48;13.65;;;6.85;;
18780;SDS011;9519;51.890;8.970;2022-08-04T05:19:11;12.35;;;6.68;;
18780;SDS011;9519;51.890;8.970;2022-08-04T05:24:26;23.30;;;9.40;;
18780;SDS011;9519;51.890;8.970;2022-08-04T05:29:34;28.45;;;12.77;;
18780;SDS011;9519;51.890;8.970;2022-08-04T05:34:43;23.70;;;11.75;;
18780;SDS011;9519;51.890;8.970;2022-08-04T05:39:55;13.70;;;7.22;;
18780;SDS011;9519;51.890;8.970;2022-08-04T05:45:03;18.25;;;8.85;;
18780;SDS011;9519;51.890;8.970;2022-08-04T05:50:09;10.90;;;6.32;;
18780;SDS011;9519;51.890;8.970;2022-08-04T05:55:13;15.88;;;7.25;;
18780;SDS011;9519;51.890;8.970;2022-08-04T06:00:17;11.35;;;6.18;;
18780;SDS011;9519;51.890;8.970;2022-08-04T06:05:22;12.63;;;4.80;;
18780;SDS011;9519;51.890;8.970;2022-08-04T06:10:26;15.50;;;7.35;;
18780;SDS011;9519;51.890;8.970;2022-08-04T06:15:31;11.23;;;4.85;;
18780;SDS011;9519;51.890;8.970;2022-08-04T06:20:41;13.93;;;6.40;;
18780;SDS011;9519;51.890;8.970;2022-08-04T06:25:47;9.77;;;4.55;;
18780;SDS011;9519;51.890;8.970;2022-08-04T06:30:56;12.80;;;5.78;;
18780;SDS011;9519;51.890;8.970;2022-08-04T06:36:04;11.35;;;4.80;;
18780;SDS011;9519;51.890;8.970;2022-08-04T06:41:11;13.57;;;5.15;;
18780;SDS011;9519;51.890;8.970;2022-08-04T06:46:13;10.77;;;3.83;;
18780;SDS011;9519;51.890;8.970;2022-08-04T06:51:18;12.20;;;4.65;;
18780;SDS011;9519;51.890;8.970;2022-08-04T06:56:23;9.55;;;4.00;;
18780;SDS011;9519;51.890;8.970;2022-08-04T07:01:28;9.93;;;4.03;;
18780;SDS011;9519;51.890;8.970;2022-08-04T07:06:33;11.95;;;3.50;;
18780;SDS011;9519;51.890;8.970;2022-08-04T07:11:36;11.07;;;3.30;;
18780;SDS011;9519;51.890;8.970;2022-08-04T07:16:39;9.60;;;3.95;;
18780;SDS011;9519;51.890;8.970;2022-08-04T07:21:43;10.23;;;3.50;;
18780;SDS011;9519;51.890;8.970;2022-08-04T07:26:48;11.70;;;3.22;;
18780;SDS011;9519;51.890;8.970;2022-08-04T07:31:53;7.10;;;2.88;;
18780;SDS011;9519;51.890;8.970;2022-08-04T07:36:59;5.82;;;2.47;;
18780;SDS011;9519;51.890;8.970;2022-08-04T07:42:02;6.07;;;2.72;;
18780;SDS011;9519;51.890;8.970;2022-08-04T07:47:05;7.22;;;2.83;;
18780;SDS011;9519;51.890;8.970;2022-08-04T07:52:09;4.97;;;2.47;;
18780;SDS011;9519;51.890;8.970;2022-08-04T07:57:14;3.65;;;2.13;;
18780;SDS011;9519;51.890;8.970;2022-08-04T08:02:19;4.28;;;2.10;;
18780;SDS011;9519;51.890;8.970;2022-08-04T08:07:24;4.80;;;2.10;;
18780;SDS011;9519;51.890;8.970;2022-08-04T08:12:26;4.90;;;2.20;;
18780;SDS011;9519;51.890;8.970;2022-08-04T08:17:29;6.43;;;2.30;;
18780;SDS011;9519;51.890;8.970;2022-08-04T08:22:33;3.78;;;2.17;;
18780;SDS011;9519;51.890;8.970;2022-08-04T08:27:37;7.15;;;2.30;;
18780;SDS011;9519;51.890;8.970;2022-08-04T08:32:39;8.60;;;2.40;;
18780;SDS011;9519;51.890;8.970;2022-08-04T08:37:43;6.88;;;2.35;;
18780;SDS011;9519;51.890;8.970;2022-08-04T08:42:59;3.92;;;1.90;;
18780;SDS011;9519;51.890;8.970;2022-08-04T08:48:40;4.97;;;2.08;;
18780;SDS011;9519;51.890;8.970;2022-08-04T08:54:07;6.18;;;2.28;;
18780;SDS011;9519;51.890;8.970;2022-08-04T08:59:35;8.57;;;2.22;;
18780;SDS011;9519;51.890;8.970;2022-08-04T09:04:57;6.18;;;2.45;;
18780;SDS011;9519;51.890;8.970;2022-08-04T09:10:18;11.57;;;2.30;;
18780;SDS011;9519;51.890;8.970;2022-08-04T09:15:29;3.92;;;2.10;;
18780;SDS011;9519;51.890;8.970;2022-08-04T09:20:42;5.03;;;2.10;;
18780;SDS011;9519;51.890;8.970;2022-08-04T09:25:53;5.38;;;2.45;;
18780;SDS011;9519;51.890;8.970;2022-08-04T09:31:05;7.07;;;2.42;;
18780;SDS011;9519;51.890;8.970;2022-08-04T09:36:14;8.00;;;2.28;;
18780;SDS011;9519;51.890;8.970;2022-08-04T09:41:34;3.70;;;2.20;;
18780;SDS011;9519;51.890;8.970;2022-08-04T09:46:51;6.22;;;2.10;;
18780;SDS011;9519;51.890;8.970;2022-08-04T09:52:10;8.13;;;2.22;;
18780;SDS011;9519;51.890;8.970;2022-08-04T09:57:40;3.70;;;2.00;;
18780;SDS011;9519;51.890;8.970;2022-08-04T10:02:57;4.47;;;2.05;;
18780;SDS011;9519;51.890;8.970;2022-08-04T10:08:03;4.13;;;2.22;;
18780;SDS011;9519;51.890;8.970;2022-08-04T10:13:35;9.60;;;1.90;;
18780;SDS011;9519;51.890;8.970;2022-08-04T10:18:55;5.93;;;2.08;;
18780;SDS011;9519;51.890;8.970;2022-08-04T10:24:12;4.10;;;1.90;;
18780;SDS011;9519;51.890;8.970;2022-08-04T10:29:36;7.30;;;1.83;;
18780;SDS011;9519;51.890;8.970;2022-08-04T10:34:46;5.78;;;1.15;;
18780;SDS011;9519;51.890;8.970;2022-08-04T10:40:03;4.25;;;1.88;;
18780;SDS011;9519;51.890;8.970;2022-08-04T10:45:31;3.05;;;1.40;;
18780;SDS011;9519;51.890;8.970;2022-08-04T10:50:41;3.00;;;1.55;;
18780;SDS011;9519;51.890;8.970;2022-08-04T10:56:08;4.28;;;1.50;;
18780;SDS011;9519;51.890;8.970;2022-08-04T11:01:21;5.38;;;1.40;;
18780;SDS011;9519;51.890;8.970;2022-08-04T11:06:29;4.20;;;1.13;;
18780;SDS011;9519;51.890;8.970;2022-08-04T11:11:35;3.55;;;1.08;;
18780;SDS011;9519;51.890;8.970;2022-08-04T11:16:46;5.28;;;1.35;;
18780;SDS011;9519;51.890;8.970;2022-08-04T11:21:55;6.90;;;1.45;;
18780;SDS011;9519;51.890;8.970;2022-08-04T11:27:04;2.83;;;1.20;;
18780;SDS011;9519;51.890;8.970;2022-08-04T11:32:24;5.47;;;1.58;;
18780;SDS011;9519;51.890;8.970;2022-08-04T11:37:40;5.28;;;1.90;;
18780;SDS011;9519;51.890;8.970;2022-08-04T11:42:50;4.72;;;1.70;;
18780;SDS011;9519;51.890;8.970;2022-08-04T11:48:03;4.20;;;1.70;;
18780;SDS011;9519;51.890;8.970;2022-08-04T11:53:12;2.20;;;1.20;;
18780;SDS011;9519;51.890;8.970;2022-08-04T11:58:18;3.33;;;1.50;;
18780;SDS011;9519;51.890;8.970;2022-08-04T12:03:26;5.65;;;1.65;;
18780;SDS011;9519;51.890;8.970;2022-08-04T12:08:42;4.57;;;1.40;;
18780;SDS011;9519;51.890;8.970;2022-08-04T12:14:08;3.75;;;1.50;;
18780;SDS011;9519;51.890;8.970;2022-08-04T12:19:25;5.03;;;1.13;;
18780;SDS011;9519;51.890;8.970;2022-08-04T12:24:36;5.10;;;1.50;;
18780;SDS011;9519;51.890;8.970;2022-08-04T12:29:45;4.95;;;1.30;;
18780;SDS011;9519;51.890;8.970;2022-08-04T12:34:52;4.55;;;1.10;;
18780;SDS011;9519;51.890;8.970;2022-08-04T12:40:12;3.05;;;1.40;;
18780;SDS011;9519;51.890;8.970;2022-08-04T12:45:20;6.30;;;1.20;;
18780;SDS011;9519;51.890;8.970;2022-08-04T12:50:25;5.95;;;1.60;;
18780;SDS011;9519;51.890;8.970;2022-08-04T12:55:29;4.25;;;1.40;;
18780;SDS011;9519;51.890;8.970;2022-08-04T13:00:36;4.57;;;1.42;;
18780;SDS011;9519;51.890;8.970;2022-08-04T13:05:41;3.38;;;0.98;;
18780;SDS011;9519;51.890;8.970;2022-08-04T13:10:46;2.58;;;1.20;;
18780;SDS011;9519;51.890;8.970;2022-08-04T13:15:53;4.38;;;1.30;;
18780;SDS011;9519;51.890;8.970;2022-08-04T13:21:10;3.60;;;1.30;;
18780;SDS011;9519;51.890;8.970;2022-08-04T13:26:15;6.03;;;1.30;;
18780;SDS011;9519;51.890;8.970;2022-08-04T13:31:19;5.72;;;1.35;;
18780;SDS011;9519;51.890;8.970;2022-08-04T13:36:25;4.45;;;1.45;;
18780;SDS011;9519;51.890;8.970;2022-08-04T13:41:30;3.92;;;1.10;;
18780;SDS011;9519;51.890;8.970;2022-08-04T13:46:36;4.00;;;1.30;;
18780;SDS011;9519;51.890;8.970;2022-08-04T13:51:50;4.03;;;1.00;;
18780;SDS011;9519;51.890;8.970;2022-08-04T13:56:57;3.00;;;0.95;;
18780;SDS011;9519;51.890;8.970;2022-08-04T14:02:08;4.32;;;1.30;;
18780;SDS011;9519;51.890;8.970;2022-08-04T14:07:32;3.97;;;1.05;;
18780;SDS011;9519;51.890;8.970;2022-08-04T14:12:46;4.53;;;1.08;;
18780;SDS011;9519;51.890;8.970;2022-08-04T14:17:51;3.17;;;0.90;;
18780;SDS011;9519;51.890;8.970;2022-08-04T14:22:55;4.40;;;0.90;;
18780;SDS011;9519;51.890;8.970;2022-08-04T14:28:02;4.40;;;1.00;;
18780;SDS011;9519;51.890;8.970;2022-08-04T14:33:05;4.70;;;0.93;;
18780;SDS011;9519;51.890;8.970;2022-08-04T14:38:14;4.28;;;1.17;;
18780;SDS011;9519;51.890;8.970;2022-08-04T14:43:16;7.13;;;1.00;;
18780;SDS011;9519;51.890;8.970;2022-08-04T14:48:19;6.32;;;1.27;;
18780;SDS011;9519;51.890;8.970;2022-08-04T14:53:23;3.95;;;1.05;;
18780;SDS011;9519;51.890;8.970;2022-08-04T14:58:29;4.10;;;1.25;;
18780;SDS011;9519;51.890;8.970;2022-08-04T15:03:35;4.68;;;1.60;;
18780;SDS011;9519;51.890;8.970;2022-08-04T15:08:43;6.63;;;1.90;;
18780;SDS011;9519;51.890;8.970;2022-08-04T15:13:45;6.43;;;2.03;;
18780;SDS011;9519;51.890;8.970;2022-08-04T15:18:48;5.30;;;1.92;;
18780;SDS011;9519;51.890;8.970;2022-08-04T15:23:52;10.30;;;2.22;;
18780;SDS011;9519;51.890;8.970;2022-08-04T15:28:57;5.65;;;2.08;;
18780;SDS011;9519;51.890;8.970;2022-08-04T15:34:09;5.95;;;1.77;;
18780;SDS011;9519;51.890;8.970;2022-08-04T15:39:18;5.35;;;1.63;;
18780;SDS011;9519;51.890;8.970;2022-08-04T15:44:40;6.13;;;2.03;;
18780;SDS011;9519;51.890;8.970;2022-08-04T15:50:17;10.18;;;2.42;;
18780;SDS011;9519;51.890;8.970;2022-08-04T16:11:47;19.00;;;2.88;;
18780;SDS011;9519;51.890;8.970;2022-08-04T16:16:50;10.95;;;3.17;;
18780;SDS011;9519;51.890;8.970;2022-08-04T16:21:53;15.82;;;2.72;;
18780;SDS011;9519;51.890;8.970;2022-08-04T16:26:59;9.27;;;2.80;;
18780;SDS011;9519;51.890;8.970;2022-08-04T16:32:13;12.82;;;3.15;;
18780;SDS011;9519;51.890;8.970;2022-08-04T16:37:29;12.65;;;2.92;;
18780;SDS011;9519;51.890;8.970;2022-08-04T16:42:34;8.30;;;2.53;;
18780;SDS011;9519;51.890;8.970;2022-08-04T16:53:08;9.45;;;3.20;;
18780;SDS011;9519;51.890;8.970;2022-08-04T16:58:13;8.63;;;2.72;;
18780;SDS011;9519;51.890;8.970;2022-08-04T17:03:17;10.77;;;3.15;;
18780;SDS011;9519;51.890;8.970;2022-08-04T17:08:20;8.02;;;2.70;;
18780;SDS011;9519;51.890;8.970;2022-08-04T17:13:33;10.93;;;2.67;;
18780;SDS011;9519;51.890;8.970;2022-08-04T17:18:39;6.18;;;2.20;;
18780;SDS011;9519;51.890;8.970;2022-08-04T17:23:45;8.55;;;2.67;;
18780;SDS011;9519;51.890;8.970;2022-08-04T17:28:52;8.63;;;2.67;;
18780;SDS011;9519;51.890;8.970;2022-08-04T17:33:57;10.82;;;2.95;;
18780;SDS011;9519;51.890;8.970;2022-08-04T17:39:03;10.88;;;3.30;;
18780;SDS011;9519;51.890;8.970;2022-08-04T17:44:15;10.13;;;2.45;;
18780;SDS011;9519;51.890;8.970;2022-08-04T17:49:20;8.88;;;2.47;;
18780;SDS011;9519;51.890;8.970;2022-08-04T17:54:27;7.63;;;2.53;;
18780;SDS011;9519;51.890;8.970;2022-08-04T17:59:41;16.20;;;2.75;;
18780;SDS011;9519;51.890;8.970;2022-08-04T18:04:48;8.32;;;2.70;;
18780;SDS011;9519;51.890;8.970;2022-08-04T18:09:54;12.77;;;3.15;;
18780;SDS011;9519;51.890;8.970;2022-08-04T18:14:59;8.80;;;2.80;;
18780;SDS011;9519;51.890;8.970;2022-08-04T18:20:05;11.18;;;3.20;;
18780;SDS011;9519;51.890;8.970;2022-08-04T18:25:10;14.85;;;3.05;;
18780;SDS011;9519;51.890;8.970;2022-08-04T18:30:16;9.85;;;2.97;;
18780;SDS011;9519;51.890;8.970;2022-08-04T18:35:18;14.57;;;3.25;;
18780;SDS011;9519;51.890;8.970;2022-08-04T18:40:21;10.90;;;3.03;;
18780;SDS011;9519;51.890;8.970;2022-08-04T18:45:25;8.88;;;2.60;;
18780;SDS011;9519;51.890;8.970;2022-08-04T18:50:27;9.57;;;2.85;;
18780;SDS011;9519;51.890;8.970;2022-08-04T18:55:29;8.27;;;2.53;;
18780;SDS011;9519;51.890;8.970;2022-08-04T19:00:33;7.00;;;2.30;;
18780;SDS011;9519;51.890;8.970;2022-08-04T19:05:35;5.10;;;1.80;;
18780;SDS011;9519;51.890;8.970;2022-08-04T19:10:37;5.13;;;1.88;;
18780;SDS011;9519;51.890;8.970;2022-08-04T19:15:41;3.42;;;1.77;;
18780;SDS011;9519;51.890;8.970;2022-08-04T19:20:43;6.22;;;2.22;;
18780;SDS011;9519;51.890;8.970;2022-08-04T19:25:46;7.00;;;1.90;;
18780;SDS011;9519;51.890;8.970;2022-08-04T19:30:50;7.03;;;2.13;;
18780;SDS011;9519;51.890;8.970;2022-08-04T19:35:53;6.28;;;1.98;;
18780;SDS011;9519;51.890;8.970;2022-08-04T19:40:55;8.27;;;1.88;;
18780;SDS011;9519;51.890;8.970;2022-08-04T19:46:00;9.23;;;2.40;;
18780;SDS011;9519;51.890;8.970;2022-08-04T19:51:02;6.65;;;1.90;;
18780;SDS011;9519;51.890;8.970;2022-08-04T19:56:05;8.18;;;2.05;;
18780;SDS011;9519;51.890;8.970;2022-08-04T20:01:09;8.38;;;2.97;;
18780;SDS011;9519;51.890;8.970;2022-08-04T20:06:12;5.53;;;1.85;;
18780;SDS011;9519;51.890;8.970;2022-08-04T20:11:16;11.13;;;2.20;;
18780;SDS011;9519;51.890;8.970;2022-08-04T20:16:21;5.90;;;2.13;;
18780;SDS011;9519;51.890;8.970;2022-08-04T20:21:24;6.57;;;2.00;;
18780;SDS011;9519;51.890;8.970;2022-08-04T20:26:26;7.00;;;2.03;;
18780;SDS011;9519;51.890;8.970;2022-08-04T20:31:29;4.45;;;1.85;;
18780;SDS011;9519;51.890;8.970;2022-08-04T20:36:31;7.00;;;2.20;;
18780;SDS011;9519;51.890;8.970;2022-08-04T20:41:34;4.75;;;2.10;;
18780;SDS011;9519;51.890;8.970;2022-08-04T20:46:37;4.57;;;2.05;;
18780;SDS011;9519;51.890;8.970;2022-08-04T20:51:39;5.95;;;2.03;;
18780;SDS011;9519;51.890;8.970;2022-08-04T20:56:43;7.55;;;1.98;;
18780;SDS011;9519;51.890;8.970;2022-08-04T21:01:46;6.40;;;2.10;;
18780;SDS011;9519;51.890;8.970;2022-08-04T21:06:48;6.15;;;1.92;;
18780;SDS011;9519;51.890;8.970;2022-08-04T21:11:50;8.05;;;2.10;;
18780;SDS011;9519;51.890;8.970;2022-08-04T21:16:54;6.05;;;1.83;;
18780;SDS011;9519;51.890;8.970;2022-08-04T21:21:57;7.75;;;2.13;;
18780;SDS011;9519;51.890;8.970;2022-08-04T21:27:00;7.72;;;1.88;;
18780;SDS011;9519;51.890;8.970;2022-08-04T21:32:06;7.38;;;2.03;;
18780;SDS011;9519;51.890;8.970;2022-08-04T21:37:08;6.75;;;2.25;;
18780;SDS011;9519;51.890;8.970;2022-08-04T21:42:11;8.23;;;3.40;;
18780;SDS011;9519;51.890;8.970;2022-08-04T21:47:15;8.27;;;2.78;;
18780;SDS011;9519;51.890;8.970;2022-08-04T21:52:17;5.72;;;2.72;;
18780;SDS011;9519;51.890;8.970;2022-08-04T21:57:19;11.65;;;2.90;;
18780;SDS011;9519;51.890;8.970;2022-08-04T22:02:23;7.50;;;3.25;;
18780;SDS011;9519;51.890;8.970;2022-08-04T22:07:25;7.68;;;2.85;;
18780;SDS011;9519;51.890;8.970;2022-08-04T22:12:27;8.18;;;3.70;;
18780;SDS011;9519;51.890;8.970;2022-08-04T22:17:30;11.48;;;3.10;;
18780;SDS011;9519;51.890;8.970;2022-08-04T22:22:32;9.07;;;4.20;;
18780;SDS011;9519;51.890;8.970;2022-08-04T22:27:35;10.32;;;4.40;;
18780;SDS011;9519;51.890;8.970;2022-08-04T22:32:56;13.98;;;4.68;;
18780;SDS011;9519;51.890;8.970;2022-08-04T22:37:59;13.20;;;4.38;;
18780;SDS011;9519;51.890;8.970;2022-08-04T22:43:01;8.00;;;4.70;;
18780;SDS011;9519;51.890;8.970;2022-08-04T22:48:04;7.97;;;4.47;;
18780;SDS011;9519;51.890;8.970;2022-08-04T22:53:06;11.45;;;4.45;;
18780;SDS011;9519;51.890;8.970;2022-08-04T22:58:09;11.25;;;4.45;;
18780;SDS011;9519;51.890;8.970;2022-08-04T23:03:14;14.77;;;5.63;;
18780;SDS011;9519;51.890;8.970;2022-08-04T23:08:16;10.95;;;5.00;;
18780;SDS011;9519;51.890;8.970;2022-08-04T23:13:18;9.40;;;4.68;;
18780;SDS011;9519;51.890;8.970;2022-08-04T23:18:22;8.80;;;5.03;;
18780;SDS011;9519;51.890;8.970;2022-08-04T23:23:24;11.43;;;5.20;;
18780;SDS011;9519;51.890;8.970;2022-08-04T23:28:26;10.13;;;4.80;;
18780;SDS011;9519;51.890;8.970;2022-08-04T23:33:30;9.95;;;5.95;;
18780;SDS011;9519;51.890;8.970;2022-08-04T23:38:32;13.88;;;6.03;;
18780;SDS011;9519;51.890;8.970;2022-08-04T23:43:34;11.40;;;5.20;;
18780;SDS011;9519;51.890;8.970;2022-08-04T23:48:38;10.18;;;4.60;;
18780;SDS011;9519;51.890;8.970;2022-08-04T23:53:41;10.32;;;4.35;;
18780;SDS011;9519;51.890;8.970;2022-08-04T23:58:44;11.27;;;4.53;;
